Port Severn, Canada
Current Conditions -  °F | °C
As of 12:13 PM on Sunday 23 Nov 2014 (Local Time) from CYQA Reporting Station
Haze Haze  
Wind Chill: 34°   Ceiling: 4100
Heat Index: 41°   Visibility: 2.5mi
Dew Point: 41°   Wind: 13mph
Humidity: 100%   Direction: 160°SSE
Pressure: 29.91"   Gusts: 18mph
Location:  44.8°N, 79.72°W
Report Text: CYQA 231713Z AUTO 16011G16KT 2 1/2SM BR BKN041 05/05 A2991 RMK SLP139
Loading
Personal Weather Stations






























Interactive Weather Map New forecast layout! Learn more

10-Day Weather Forecast

Advertisements
Track Severe Weather on mobile